Time;durP1;ratioP1;P1;durP2;ratioP2;P2;SDS_P1;SDS_P2;PMS_P1;PMS_P2;Temp;Humidity;BMP_temperature;BMP_pressure;BME280_temperature;BME280_humidity;BME280_pressure;Samples;Min_cycle;Max_cycle;Signal;HPM_P1;HPM_P2
2021/11/13 00:00:39;;;;;;;27.85;20.08;;;8.60;99.90;;;;;;5064337;28;20044;-77
2021/11/13 00:03:05;;;;;;;25.70;21.20;;;8.60;99.90;;;;;;5062495;28;20047;-77
2021/11/13 00:05:31;;;;;;;23.55;19.15;;;8.60;99.90;;;;;;5062991;28;20122;-77
2021/11/13 00:07:56;;;;;;;28.77;20.83;;;8.60;99.90;;;;;;5063848;28;20119;-77
2021/11/13 00:10:26;;;;;;;28.83;21.02;;;8.60;99.90;;;;;;5066479;28;20047;-77
2021/11/13 00:12:54;;;;;;;29.45;21.83;;;8.60;99.90;;;;;;5066052;28;20728;-77
2021/11/13 00:15:21;;;;;;;29.88;23.00;;;8.50;99.90;;;;;;5063264;28;20128;-77
2021/11/13 00:17:48;;;;;;;32.00;22.25;;;8.50;99.90;;;;;;5058921;28;20765;-78
2021/11/13 00:20:14;;;;;;;27.98;21.13;;;8.50;99.90;;;;;;5059784;28;20132;-77
2021/11/13 00:22:40;;;;;;;32.50;22.67;;;8.50;99.90;;;;;;5063696;28;20044;-77
2021/11/13 00:25:06;;;;;;;34.08;23.73;;;8.50;99.90;;;;;;5060730;28;20028;-77
2021/11/13 00:27:32;;;;;;;34.78;23.70;;;8.50;99.90;;;;;;5060103;28;20045;-77
2021/11/13 00:29:58;;;;;;;30.10;21.83;;;8.50;99.90;;;;;;5061510;28;20107;-77
2021/11/13 00:32:24;;;;;;;31.15;24.13;;;8.40;99.90;;;;;;5043189;28;20053;-78
2021/11/13 00:34:49;;;;;;;38.53;25.73;;;8.50;99.90;;;;;;5091615;28;20076;-77
2021/11/13 00:37:15;;;;;;;31.70;23.70;;;8.40;99.90;;;;;;5060749;28;20097;-77
2021/11/13 00:39:41;;;;;;;31.02;24.02;;;8.40;99.90;;;;;;5062785;28;20044;-77
2021/11/13 00:42:06;;;;;;;37.15;25.20;;;8.40;99.90;;;;;;5061651;28;20044;-77
2021/11/13 00:44:33;;;;;;;39.00;25.45;;;8.40;99.90;;;;;;5059935;28;20131;-77
2021/11/13 00:47:00;;;;;;;33.50;24.92;;;8.40;99.90;;;;;;5058806;28;20467;-78
2021/11/13 00:49:26;;;;;;;38.20;25.38;;;8.40;99.90;;;;;;5057368;28;20040;-77
2021/11/13 00:51:52;;;;;;;38.15;26.13;;;8.50;99.90;;;;;;5060800;28;20176;-77
2021/11/13 00:54:17;;;;;;;39.42;26.65;;;8.40;99.90;;;;;;5059586;28;20048;-77
2021/11/13 00:56:43;;;;;;;37.63;25.25;;;8.40;99.90;;;;;;5060433;28;20047;-77
2021/11/13 00:59:09;;;;;;;39.60;25.90;;;8.40;99.90;;;;;;5057318;28;20048;-77
2021/11/13 01:01:35;;;;;;;31.73;23.83;;;8.40;99.90;;;;;;5059014;28;20067;-77
2021/11/13 01:04:01;;;;;;;37.65;25.85;;;8.40;99.90;;;;;;5059640;28;20045;-77
2021/11/13 01:06:27;;;;;;;37.05;25.77;;;8.50;99.90;;;;;;5046843;28;20045;-77
2021/11/13 01:08:52;;;;;;;35.60;25.75;;;8.50;99.90;;;;;;5059357;28;20048;-77
2021/11/13 01:11:18;;;;;;;41.88;26.98;;;8.50;99.90;;;;;;5063910;28;21026;-77
2021/11/13 01:13:44;;;;;;;37.03;26.63;;;8.50;99.90;;;;;;5061185;28;20039;-77
2021/11/13 01:16:10;;;;;;;43.42;27.15;;;8.50;99.90;;;;;;5061459;28;20021;-77
2021/11/13 01:18:38;;;;;;;41.50;27.65;;;8.40;99.90;;;;;;5061842;28;20656;-77
2021/11/13 01:21:05;;;;;;;44.63;28.80;;;8.50;99.90;;;;;;5064522;28;20490;-77
2021/11/13 01:23:30;;;;;;;44.47;28.90;;;8.50;99.90;;;;;;5060442;28;20118;-77
2021/11/13 01:25:56;;;;;;;39.22;28.27;;;8.50;99.90;;;;;;5062743;28;20459;-77
2021/11/13 01:28:22;;;;;;;51.60;30.77;;;8.50;99.90;;;;;;5056605;28;20131;-77
2021/11/13 01:30:48;;;;;;;45.10;28.45;;;8.50;99.90;;;;;;5056867;28;20121;-78
2021/11/13 01:33:14;;;;;;;42.80;30.00;;;8.50;99.90;;;;;;5057720;28;20041;-77
2021/11/13 01:35:39;;;;;;;41.72;29.17;;;8.50;99.90;;;;;;5057833;28;20041;-77
2021/11/13 01:38:05;;;;;;;39.08;28.30;;;8.50;99.90;;;;;;5059288;28;20039;-77
2021/11/13 01:40:31;;;;;;;43.95;30.50;;;8.50;99.90;;;;;;5060857;28;20147;-77
2021/11/13 01:42:58;;;;;;;39.83;29.35;;;8.50;99.90;;;;;;5055915;28;20047;-77
2021/11/13 01:45:24;;;;;;;35.45;26.65;;;8.50;99.90;;;;;;5058059;28;20483;-77
2021/11/13 01:47:50;;;;;;;42.28;29.52;;;8.50;99.90;;;;;;5058531;28;20131;-77
2021/11/13 01:50:25;;;;;;;42.65;28.58;;;8.60;99.90;;;;;;5062252;28;20119;-77
2021/11/13 01:52:52;;;;;;;38.67;29.00;;;8.60;99.90;;;;;;5060102;28;20055;-77
2021/11/13 01:55:19;;;;;;;40.13;28.05;;;8.60;99.90;;;;;;5059420;28;20093;-77
2021/11/13 01:57:46;;;;;;;36.80;27.38;;;8.60;99.90;;;;;;5057954;28;20098;-78
2021/11/13 02:00:25;;;;;;;36.13;25.83;;;8.60;99.90;;;;;;5058175;28;20053;-77
2021/11/13 02:02:51;;;;;;;41.15;27.65;;;8.60;99.90;;;;;;5061027;28;20078;-77
2021/11/13 02:05:16;;;;;;;33.22;25.52;;;8.60;99.90;;;;;;5089812;28;20040;-77
2021/11/13 02:07:42;;;;;;;34.97;25.35;;;8.70;99.90;;;;;;5057406;28;20051;-77
2021/11/13 02:10:09;;;;;;;34.53;25.05;;;8.60;99.90;;;;;;5059837;28;20086;-77
2021/11/13 02:12:35;;;;;;;28.23;23.45;;;8.60;99.90;;;;;;5057580;28;20036;-77
2021/11/13 02:15:01;;;;;;;34.97;25.35;;;8.60;99.90;;;;;;5056906;28;20067;-77
2021/11/13 02:17:27;;;;;;;30.05;23.45;;;8.70;99.90;;;;;;5056810;28;20619;-77
2021/11/13 02:19:53;;;;;;;27.08;23.00;;;8.70;99.90;;;;;;5059732;28;20061;-77
2021/11/13 02:22:18;;;;;;;31.10;23.90;;;8.70;99.90;;;;;;5061360;28;20064;-77
2021/11/13 02:24:45;;;;;;;28.35;22.77;;;8.70;99.90;;;;;;5059922;28;20118;-77
2021/11/13 02:27:11;;;;;;;30.63;23.95;;;8.70;99.90;;;;;;5057373;28;20119;-77
2021/11/13 02:29:37;;;;;;;31.13;24.10;;;8.70;99.90;;;;;;5062962;28;20435;-77
2021/11/13 02:32:03;;;;;;;27.63;22.23;;;8.70;99.90;;;;;;5058895;28;20036;-77
2021/11/13 02:34:30;;;;;;;27.35;21.85;;;8.80;99.90;;;;;;5061829;28;20043;-77
2021/11/13 02:36:55;;;;;;;24.55;20.73;;;8.80;99.90;;;;;;5062655;28;20042;-77
2021/11/13 02:39:22;;;;;;;27.40;21.48;;;8.70;99.90;;;;;;5063782;28;20048;-77
2021/11/13 02:41:48;;;;;;;26.90;21.17;;;8.80;99.90;;;;;;5062252;28;20063;-77
2021/11/13 02:44:17;;;;;;;26.65;21.73;;;8.80;99.90;;;;;;5063640;28;20118;-77
2021/11/13 02:46:43;;;;;;;23.42;20.73;;;8.80;99.90;;;;;;5059650;28;20494;-77
2021/11/13 02:49:09;;;;;;;27.15;22.05;;;8.80;99.90;;;;;;5061594;28;20498;-77
2021/11/13 02:51:35;;;;;;;24.52;20.88;;;8.80;99.90;;;;;;5062506;28;20052;-77
2021/11/13 02:54:02;;;;;;;22.73;20.23;;;8.90;99.90;;;;;;5062003;28;20045;-77
2021/11/13 02:56:28;;;;;;;25.63;22.15;;;8.80;99.90;;;;;;5094607;28;20052;-77
2021/11/13 02:58:53;;;;;;;27.02;21.95;;;8.90;99.90;;;;;;5061490;28;20044;-77
2021/11/13 03:01:24;;;;;;;28.83;24.20;;;8.90;99.90;;;;;;5061979;28;20120;-77
2021/11/13 03:03:52;;;;;;;26.27;22.15;;;8.90;99.90;;;;;;5061721;28;20123;-77
2021/11/13 03:06:18;;;;;;;31.20;24.58;;;8.90;99.90;;;;;;5063291;28;20060;-77
2021/11/13 03:08:45;;;;;;;31.73;25.08;;;8.90;99.90;;;;;;5059236;28;20064;-77
2021/11/13 03:11:14;;;;;;;32.28;25.48;;;8.90;99.90;;;;;;5063814;28;20056;-77
2021/11/13 03:13:42;;;;;;;34.63;25.60;;;8.90;99.90;;;;;;5061801;28;20041;-77
2021/11/13 03:16:09;;;;;;;31.92;26.55;;;9.00;99.90;;;;;;5061594;28;20043;-77
2021/11/13 03:18:36;;;;;;;36.05;28.00;;;9.00;99.90;;;;;;5062560;28;20049;-77
2021/11/13 03:21:05;;;;;;;35.85;27.50;;;9.00;99.90;;;;;;5068230;28;20044;-77
2021/11/13 03:23:32;;;;;;;33.92;26.45;;;9.00;99.90;;;;;;5064524;28;20044;-76
2021/11/13 03:26:03;;;;;;;30.55;25.33;;;9.00;99.90;;;;;;5065979;28;20044;-77
2021/11/13 03:28:33;;;;;;;31.27;26.20;;;9.10;99.90;;;;;;5062979;28;20033;-77
2021/11/13 03:31:02;;;;;;;31.50;24.40;;;9.10;99.90;;;;;;5098131;28;20075;-78
2021/11/13 03:33:29;;;;;;;31.88;25.77;;;9.10;99.90;;;;;;5068380;28;20101;-77
2021/11/13 03:35:54;;;;;;;36.83;27.77;;;9.10;99.90;;;;;;5066450;28;20044;-77
2021/11/13 03:38:20;;;;;;;35.72;27.35;;;9.10;99.90;;;;;;5064459;28;20072;-77
2021/11/13 03:40:48;;;;;;;30.83;25.85;;;9.10;99.90;;;;;;5065658;28;20127;-77
2021/11/13 03:43:15;;;;;;;34.17;26.73;;;9.10;99.90;;;;;;5065835;28;20142;-77
2021/11/13 03:45:43;;;;;;;34.92;27.05;;;9.10;99.90;;;;;;5062258;28;20375;-76
2021/11/13 03:48:09;;;;;;;37.40;28.02;;;9.10;99.90;;;;;;5060996;28;20036;-77
2021/11/13 03:50:34;;;;;;;36.25;28.30;;;9.10;99.90;;;;;;5050262;28;20055;-77
2021/11/13 03:53:01;;;;;;;35.72;28.15;;;9.10;99.90;;;;;;5066577;28;20044;-77
2021/11/13 03:55:26;;;;;;;37.33;29.58;;;9.20;99.90;;;;;;5065447;28;20061;-77
2021/11/13 03:57:53;;;;;;;40.10;29.98;;;9.20;99.90;;;;;;5064644;28;20381;-77
2021/11/13 04:00:21;;;;;;;44.17;30.45;;;9.20;99.90;;;;;;5063689;28;20117;-77
2021/11/13 04:02:48;;;;;;;41.10;29.23;;;9.20;99.90;;;;;;5065139;28;20048;-77
2021/11/13 04:05:15;;;;;;;39.05;30.35;;;9.20;99.90;;;;;;5063623;28;20044;-77
2021/11/13 04:07:41;;;;;;;39.38;30.00;;;9.30;99.90;;;;;;5091046;28;20045;-76
2021/11/13 04:10:09;;;;;;;43.40;31.35;;;9.20;99.90;;;;;;5063106;28;20094;-77
2021/11/13 04:12:35;;;;;;;39.38;29.20;;;9.20;99.90;;;;;;5062738;28;20056;-77
2021/11/13 04:15:02;;;;;;;39.97;30.20;;;9.20;99.90;;;;;;5060630;28;20384;-77
2021/11/13 04:17:28;;;;;;;41.70;30.83;;;9.30;99.90;;;;;;5062738;28;20040;-77
2021/11/13 04:19:54;;;;;;;46.47;31.90;;;9.20;99.90;;;;;;5064158;28;20040;-76
2021/11/13 04:22:20;;;;;;;44.47;31.55;;;9.20;99.90;;;;;;5064258;28;20395;-77
2021/11/13 04:24:47;;;;;;;38.00;29.88;;;9.30;99.90;;;;;;5079527;28;20049;-76
2021/11/13 04:27:15;;;;;;;41.67;30.48;;;9.30;99.90;;;;;;5062632;28;20561;-76
2021/11/13 04:29:41;;;;;;;37.58;31.00;;;9.30;99.90;;;;;;5062248;28;20395;-76
2021/11/13 04:32:07;;;;;;;42.08;29.35;;;9.30;99.90;;;;;;5064261;28;20578;-77
2021/11/13 04:34:44;;;;;;;47.13;31.75;;;9.30;99.90;;;;;;5063429;28;20123;-77
2021/11/13 04:37:15;;;;;;;42.92;31.85;;;9.30;99.90;;;;;;5058404;28;20139;-77
2021/11/13 04:39:41;;;;;;;42.60;30.45;;;9.30;99.90;;;;;;5064250;28;20498;-77
2021/11/13 04:42:07;;;;;;;42.97;32.60;;;9.40;99.90;;;;;;5062007;28;20048;-77
2021/11/13 04:44:32;;;;;;;38.85;31.08;;;9.40;99.90;;;;;;5062037;28;20044;-77
2021/11/13 04:46:58;;;;;;;40.58;31.58;;;9.40;99.90;;;;;;5063338;28;20570;-77
2021/11/13 04:49:24;;;;;;;42.78;32.63;;;9.40;99.90;;;;;;5094554;28;20049;-77
2021/11/13 04:51:49;;;;;;;47.22;33.88;;;9.40;99.90;;;;;;5062049;28;20600;-77
2021/11/13 04:54:15;;;;;;;38.10;29.73;;;9.40;99.90;;;;;;5064363;28;20036;-77
2021/11/13 04:56:40;;;;;;;40.53;31.27;;;9.40;99.90;;;;;;5060561;28;20531;-77
2021/11/13 04:59:06;;;;;;;47.40;32.92;;;9.40;99.90;;;;;;5063053;28;20123;-77
2021/11/13 05:01:32;;;;;;;41.88;32.92;;;9.40;99.90;;;;;;5064352;28;20040;-77
2021/11/13 05:03:58;;;;;;;45.03;32.67;;;9.40;99.90;;;;;;5063408;28;20043;-77
2021/11/13 05:06:25;;;;;;;44.30;32.97;;;9.40;99.90;;;;;;5063064;28;20037;-77
2021/11/13 05:08:50;;;;;;;49.35;35.00;;;9.40;99.90;;;;;;5059774;28;20040;-77
2021/11/13 05:11:16;;;;;;;45.45;33.03;;;9.40;99.90;;;;;;5062399;28;20052;-77
2021/11/13 05:13:42;;;;;;;38.63;30.02;;;9.40;99.90;;;;;;5064021;28;20469;-77
2021/11/13 05:16:08;;;;;;;40.88;31.58;;;9.50;99.90;;;;;;5065397;28;20044;-77
2021/11/13 05:18:33;;;;;;;42.35;31.35;;;9.40;99.90;;;;;;5057432;28;20552;-77
2021/11/13 05:20:59;;;;;;;39.55;31.73;;;9.50;99.90;;;;;;5060468;28;20091;-77
2021/11/13 05:23:25;;;;;;;45.92;33.22;;;9.40;99.90;;;;;;5059540;28;20036;-77
2021/11/13 05:25:50;;;;;;;45.30;32.72;;;9.40;99.90;;;;;;5059469;28;20086;-77
2021/11/13 05:28:16;;;;;;;34.83;29.33;;;9.50;99.90;;;;;;5056656;28;20083;-77
2021/11/13 05:30:42;;;;;;;41.88;31.30;;;9.50;99.90;;;;;;5056371;28;20371;-77
2021/11/13 05:33:07;;;;;;;37.88;30.85;;;9.40;99.90;;;;;;5057911;28;20040;-77
2021/11/13 05:35:33;;;;;;;42.17;31.58;;;9.50;99.90;;;;;;5056118;28;20040;-77
2021/11/13 05:37:59;;;;;;;36.05;28.23;;;9.50;99.90;;;;;;5090793;28;20052;-77
2021/11/13 05:40:25;;;;;;;42.25;31.52;;;9.50;99.90;;;;;;5059427;28;20050;-77
2021/11/13 05:42:52;;;;;;;40.92;31.83;;;9.50;99.90;;;;;;5057814;28;20052;-77
2021/11/13 05:45:18;;;;;;;41.78;31.98;;;9.50;99.90;;;;;;5061828;28;20394;-77
2021/11/13 05:47:44;;;;;;;38.65;29.00;;;9.50;99.90;;;;;;5088348;28;20033;-77
2021/11/13 05:50:12;;;;;;;39.55;30.75;;;9.50;99.90;;;;;;5061251;28;20118;-77
2021/11/13 05:52:40;;;;;;;37.53;29.35;;;9.50;99.90;;;;;;5060331;28;20375;-77
2021/11/13 05:55:07;;;;;;;41.38;31.13;;;9.50;99.90;;;;;;5060090;28;20040;-77
2021/11/13 05:57:32;;;;;;;36.97;29.85;;;9.50;99.90;;;;;;5059515;28;20041;-77
2021/11/13 05:59:58;;;;;;;37.00;28.73;;;9.50;99.90;;;;;;5063981;28;20048;-77
2021/11/13 06:02:23;;;;;;;33.80;28.77;;;9.50;99.90;;;;;;5059877;28;21528;-77
2021/11/13 06:04:50;;;;;;;36.17;29.35;;;9.50;99.90;;;;;;5059816;28;20080;-77
2021/11/13 06:07:15;;;;;;;36.13;27.92;;;9.50;99.90;;;;;;5060974;28;20053;-77
2021/11/13 06:09:41;;;;;;;41.00;29.40;;;9.50;99.90;;;;;;5060868;28;20044;-77
2021/11/13 06:12:07;;;;;;;33.00;27.20;;;9.50;99.90;;;;;;5061279;28;20044;-77
2021/11/13 06:14:33;;;;;;;34.65;27.30;;;9.50;99.90;;;;;;5060724;28;20051;-77
2021/11/13 06:16:59;;;;;;;30.55;25.77;;;9.50;99.90;;;;;;5056816;28;20403;-76
2021/11/13 06:19:24;;;;;;;38.17;29.42;;;9.50;99.90;;;;;;5058840;28;20059;-77
2021/11/13 06:21:50;;;;;;;33.10;25.75;;;9.50;99.90;;;;;;5059380;28;20040;-77
2021/11/13 06:24:16;;;;;;;28.63;25.55;;;9.50;99.90;;;;;;5057264;28;20048;-77
2021/11/13 06:26:41;;;;;;;37.00;28.15;;;9.50;99.90;;;;;;5055989;28;20036;-77
2021/11/13 06:29:07;;;;;;;37.78;28.75;;;9.50;99.90;;;;;;5058862;28;20086;-77
2021/11/13 06:31:33;;;;;;;29.83;26.48;;;9.40;99.90;;;;;;5062093;28;20048;-77
2021/11/13 06:33:59;;;;;;;36.78;28.25;;;9.40;99.90;;;;;;5044265;28;20040;-77
2021/11/13 06:36:25;;;;;;;31.02;26.33;;;9.40;99.90;;;;;;5055272;28;20184;-77
2021/11/13 06:38:50;;;;;;;33.95;26.55;;;9.40;99.90;;;;;;5055784;28;20048;-76
2021/11/13 06:41:16;;;;;;;32.83;26.17;;;9.50;99.90;;;;;;5059975;28;20040;-77
2021/11/13 06:43:42;;;;;;;30.65;25.85;;;9.40;99.90;;;;;;5055187;28;20056;-77
2021/11/13 06:46:08;;;;;;;31.95;25.63;;;9.50;99.90;;;;;;5059102;28;20147;-77
2021/11/13 06:48:33;;;;;;;30.60;25.92;;;9.50;99.90;;;;;;5056275;28;20136;-77
2021/11/13 06:50:59;;;;;;;38.63;27.40;;;9.50;99.90;;;;;;5058525;28;20101;-77
2021/11/13 06:53:25;;;;;;;38.10;27.73;;;9.50;99.90;;;;;;5060759;28;20045;-77
2021/11/13 06:55:50;;;;;;;36.33;28.38;;;9.50;99.90;;;;;;5060131;28;20052;-77
2021/11/13 06:58:17;;;;;;;33.20;25.75;;;9.50;99.90;;;;;;5043945;28;20102;-76
2021/11/13 07:00:43;;;;;;;34.35;27.08;;;9.50;99.90;;;;;;5062748;28;20128;-77
2021/11/13 07:03:09;;;;;;;35.10;27.92;;;9.50;99.90;;;;;;5063790;28;20039;-76
2021/11/13 07:05:34;;;;;;;35.78;27.58;;;9.60;99.90;;;;;;5064666;28;20036;-77
2021/11/13 07:08:00;;;;;;;33.95;25.67;;;9.60;99.90;;;;;;5059142;28;20083;-77
2021/11/13 07:10:27;;;;;;;35.00;28.75;;;9.60;99.90;;;;;;5062051;28;20548;-76
2021/11/13 07:12:54;;;;;;;36.15;26.95;;;9.60;99.90;;;;;;5061590;28;20085;-77
2021/11/13 07:15:19;;;;;;;33.13;26.10;;;9.60;99.90;;;;;;5060881;28;20094;-77
2021/11/13 07:17:46;;;;;;;36.22;27.35;;;9.70;99.90;;;;;;5060310;28;20033;-77
2021/11/13 07:20:13;;;;;;;38.47;28.90;;;9.70;99.90;;;;;;5063163;28;20049;-77
2021/11/13 07:22:41;;;;;;;38.95;28.77;;;9.60;99.90;;;;;;5061037;28;20059;-77
2021/11/13 07:25:15;;;;;;;41.33;27.42;;;9.70;99.90;;;;;;5062004;28;20450;-77
2021/11/13 07:27:45;;;;;;;33.67;27.65;;;9.60;99.90;;;;;;5060303;28;20056;-76
2021/11/13 07:30:15;;;;;;;37.67;29.15;;;9.70;99.90;;;;;;5060858;28;20041;-76
2021/11/13 07:32:42;;;;;;;35.20;28.58;;;9.70;99.90;;;;;;5092096;27;20647;-77
2021/11/13 07:35:08;;;;;;;40.95;29.05;;;9.70;99.90;;;;;;5062394;28;20183;-77
2021/11/13 07:37:34;;;;;;;44.35;30.90;;;9.70;99.90;;;;;;5064282;28;20608;-76
2021/11/13 07:40:00;;;;;;;42.08;30.08;;;9.80;99.90;;;;;;5064840;28;20090;-76
2021/11/13 07:42:25;;;;;;;33.90;28.02;;;9.80;99.90;;;;;;5064372;28;21456;-76
2021/11/13 07:44:51;;;;;;;35.70;28.58;;;9.80;99.90;;;;;;5066025;28;20123;-76
2021/11/13 07:47:17;;;;;;;42.10;29.60;;;9.80;99.90;;;;;;5061054;28;20390;-76
2021/11/13 07:49:43;;;;;;;46.42;31.00;;;9.80;99.90;;;;;;5065423;28;20048;-76
2021/11/13 07:52:09;;;;;;;41.53;30.73;;;9.90;99.90;;;;;;5065448;28;20551;-76
2021/11/13 07:54:35;;;;;;;39.95;29.75;;;9.80;99.90;;;;;;5074116;28;20048;-75
2021/11/13 07:57:05;;;;;;;36.15;28.30;;;9.90;99.90;;;;;;5069480;28;20055;-77
2021/11/13 07:59:31;;;;;;;41.75;30.35;;;9.90;99.90;;;;;;5066556;28;20522;-76
2021/11/13 08:01:57;;;;;;;38.17;28.42;;;9.90;99.90;;;;;;5062516;28;20044;-76
2021/11/13 08:04:23;;;;;;;40.53;29.77;;;9.90;99.90;;;;;;5064578;28;20028;-76
2021/11/13 08:06:49;;;;;;;41.25;28.83;;;9.90;99.90;;;;;;5062154;28;20082;-76
2021/11/13 08:09:14;;;;;;;43.63;30.15;;;9.90;99.90;;;;;;5061799;28;20164;-76
2021/11/13 08:11:40;;;;;;;33.72;27.92;;;10.00;99.90;;;;;;5063166;28;20067;-76
2021/11/13 08:14:06;;;;;;;41.40;29.48;;;10.00;99.90;;;;;;5066023;28;20049;-76
2021/11/13 08:16:32;;;;;;;37.65;28.38;;;10.00;99.90;;;;;;5073322;28;20033;-76
2021/11/13 08:18:58;;;;;;;41.90;30.35;;;10.00;99.90;;;;;;5063853;28;20119;-76
2021/11/13 08:21:24;;;;;;;40.15;27.73;;;10.00;99.90;;;;;;5062487;28;20131;-77
2021/11/13 08:23:50;;;;;;;38.88;28.40;;;10.10;99.90;;;;;;5060753;28;20036;-76
2021/11/13 08:26:16;;;;;;;39.38;27.35;;;10.10;99.90;;;;;;5064493;28;20029;-76
2021/11/13 08:28:42;;;;;;;52.90;32.28;;;10.00;99.90;;;;;;5060157;28;20115;-76
2021/11/13 08:31:08;;;;;;;43.03;28.63;;;10.10;99.90;;;;;;5057968;28;20052;-76
2021/11/13 08:33:33;;;;;;;37.30;26.83;;;10.10;99.90;;;;;;5065065;28;20036;-76
2021/11/13 08:35:59;;;;;;;37.00;28.58;;;10.20;99.90;;;;;;5061927;28;20512;-76
2021/11/13 08:38:25;;;;;;;36.03;27.65;;;10.20;99.90;;;;;;5057823;28;20044;-76
2021/11/13 08:40:53;;;;;;;38.45;27.30;;;10.20;99.90;;;;;;5060824;28;20101;-76
2021/11/13 08:43:20;;;;;;;32.45;25.48;;;10.20;99.90;;;;;;5064455;28;20357;-76
2021/11/13 08:45:47;;;;;;;28.90;23.65;;;10.30;99.90;;;;;;5064019;28;20033;-76
2021/11/13 08:48:15;;;;;;;33.67;25.77;;;10.30;99.90;;;;;;5059895;28;20105;-76
2021/11/13 08:50:42;;;;;;;26.98;24.08;;;10.30;99.90;;;;;;5096303;28;20063;-76
2021/11/13 08:53:10;;;;;;;28.02;23.85;;;10.30;99.90;;;;;;5059095;28;20486;-75
2021/11/13 08:55:38;;;;;;;31.90;23.52;;;10.30;99.90;;;;;;5063194;28;20079;-76
2021/11/13 08:58:06;;;;;;;34.67;25.10;;;10.40;99.90;;;;;;5057919;28;20098;-75
2021/11/13 09:00:56;;;;;;;27.15;22.90;;;10.30;99.90;;;;;;5095788;27;20105;-75
2021/11/13 09:03:29;;;;;;;27.48;23.20;;;10.40;99.90;;;;;;5064326;28;20048;-76
2021/11/13 09:05:56;;;;;;;26.48;21.50;;;10.30;99.90;;;;;;5062311;28;20371;-76
2021/11/13 09:08:23;;;;;;;27.63;22.48;;;10.40;99.90;;;;;;5061448;28;21342;-76
2021/11/13 09:10:49;;;;;;;29.30;22.48;;;10.40;99.90;;;;;;5063856;28;20167;-76
2021/11/13 09:13:17;;;;;;;29.80;21.55;;;10.40;99.90;;;;;;5063709;28;20052;-76
2021/11/13 09:15:43;;;;;;;26.13;21.70;;;10.40;99.90;;;;;;5060125;28;20139;-76
2021/11/13 09:18:10;;;;;;;27.70;23.00;;;10.50;99.90;;;;;;5060829;28;20036;-76
2021/11/13 09:20:36;;;;;;;24.25;19.88;;;10.50;99.90;;;;;;5065688;28;20039;-76
2021/11/13 09:23:04;;;;;;;24.77;20.80;;;10.50;99.90;;;;;;5063890;28;20037;-76
2021/11/13 09:25:30;;;;;;;22.92;20.27;;;10.50;99.90;;;;;;5064137;28;20048;-76
2021/11/13 09:27:58;;;;;;;25.42;22.02;;;10.50;99.90;;;;;;5060207;28;20124;-76
2021/11/13 09:30:27;;;;;;;25.08;20.90;;;10.60;99.90;;;;;;5062813;28;20040;-76
2021/11/13 09:32:54;;;;;;;22.38;20.13;;;10.60;99.90;;;;;;5062774;28;20119;-76
2021/11/13 09:35:20;;;;;;;24.30;20.77;;;10.60;99.90;;;;;;5063215;28;20466;-76
2021/11/13 09:37:47;;;;;;;40.35;24.35;;;10.60;99.90;;;;;;5060502;28;20052;-76
2021/11/13 09:40:16;;;;;;;25.77;22.05;;;10.60;99.90;;;;;;5060403;28;20051;-76
2021/11/13 09:42:44;;;;;;;24.40;20.20;;;10.60;99.90;;;;;;5058361;28;20553;-76
2021/11/13 09:45:10;;;;;;;22.73;20.30;;;10.60;99.90;;;;;;5061072;28;20064;-76
2021/11/13 09:47:37;;;;;;;28.40;21.20;;;10.60;99.90;;;;;;5063657;28;20440;-76
2021/11/13 09:50:05;;;;;;;29.30;20.63;;;10.60;99.90;;;;;;5059657;28;20048;-76
2021/11/13 09:52:38;;;;;;;25.75;21.83;;;10.60;99.90;;;;;;5063591;28;20501;-76
2021/11/13 09:55:06;;;;;;;25.65;20.48;;;10.60;99.90;;;;;;5062363;28;20044;-76
2021/11/13 09:57:32;;;;;;;28.13;21.50;;;10.60;99.90;;;;;;5059564;28;20080;-76
2021/11/13 09:59:58;;;;;;;23.70;21.17;;;10.60;99.90;;;;;;5064189;28;20399;-76
2021/11/13 10:02:24;;;;;;;24.45;20.73;;;10.70;99.90;;;;;;5061838;28;20095;-76
2021/11/13 10:04:49;;;;;;;24.45;21.77;;;10.60;99.90;;;;;;5061052;28;20462;-76
2021/11/13 10:07:15;;;;;;;23.38;20.80;;;10.70;99.90;;;;;;5089506;28;20037;-76
2021/11/13 10:09:41;;;;;;;24.15;21.33;;;10.60;99.90;;;;;;5055614;28;20040;-76
2021/11/13 10:12:07;;;;;;;23.67;21.08;;;10.60;99.90;;;;;;5052160;28;20040;-76
2021/11/13 10:14:41;;;;;;;26.17;22.20;;;10.60;99.90;;;;;;5057195;28;20044;-76
2021/11/13 10:17:23;;;;;;;27.27;21.73;;;10.60;99.90;;;;;;5058607;28;20067;-76
2021/11/13 10:19:50;;;;;;;29.00;22.75;;;10.60;99.90;;;;;;5093118;28;20053;-76
2021/11/13 10:22:18;;;;;;;29.27;21.02;;;10.60;99.90;;;;;;5060835;28;20036;-76
2021/11/13 10:24:50;;;;;;;30.27;23.33;;;10.60;99.90;;;;;;5062512;28;20033;-76
2021/11/13 10:27:16;;;;;;;29.10;22.83;;;10.60;99.90;;;;;;5062738;28;20051;-76
2021/11/13 10:29:44;;;;;;;30.77;23.27;;;10.60;99.90;;;;;;5062976;28;20051;-76
2021/11/13 10:32:13;;;;;;;32.92;23.90;;;10.60;99.90;;;;;;5064367;28;20052;-76
2021/11/13 10:34:46;;;;;;;29.77;23.45;;;10.70;99.90;;;;;;5097802;28;20182;-76
2021/11/13 10:37:20;;;;;;;37.08;25.85;;;10.70;99.90;;;;;;5064368;28;20121;-76
2021/11/13 10:39:47;;;;;;;36.80;26.92;;;10.70;99.90;;;;;;5063513;28;20048;-76
2021/11/13 10:42:18;;;;;;;34.38;26.33;;;10.70;99.90;;;;;;5065564;28;20036;-76
2021/11/13 10:44:50;;;;;;;35.67;25.50;;;10.70;99.90;;;;;;5067223;28;20044;-76
2021/11/13 10:47:19;;;;;;;48.58;27.77;;;10.80;99.90;;;;;;5063390;28;20032;-76
2021/11/13 10:49:47;;;;;;;38.78;26.15;;;10.80;99.90;;;;;;5097383;28;20072;-76
2021/11/13 10:52:14;;;;;;;29.27;24.52;;;10.80;99.90;;;;;;5064651;28;20494;-76
2021/11/13 10:54:47;;;;;;;32.58;25.77;;;10.80;99.90;;;;;;5066316;28;20045;-76
2021/11/13 10:57:13;;;;;;;31.42;24.50;;;10.90;99.90;;;;;;5061932;28;20095;-76
2021/11/13 10:59:42;;;;;;;36.53;26.83;;;10.80;99.90;;;;;;5066619;28;20127;-76
2021/11/13 11:02:15;;;;;;;35.72;27.10;;;10.80;99.90;;;;;;5098262;28;20132;-76
2021/11/13 11:04:43;;;;;;;37.92;27.45;;;10.80;99.90;;;;;;5064779;28;20037;-76
2021/11/13 11:07:16;;;;;;;32.67;25.92;;;10.90;99.90;;;;;;5061615;28;20066;-76
2021/11/13 11:09:47;;;;;;;47.67;29.35;;;10.90;99.90;;;;;;5064302;28;21427;-76
2021/11/13 11:12:16;;;;;;;35.63;27.27;;;10.90;99.90;;;;;;5063600;28;20037;-76
2021/11/13 11:14:46;;;;;;;35.58;27.33;;;10.90;99.90;;;;;;5063860;28;20098;-76
2021/11/13 11:17:16;;;;;;;38.28;28.00;;;10.90;99.90;;;;;;5060414;28;20097;-76
2021/11/13 11:19:46;;;;;;;33.13;24.02;;;10.80;99.90;;;;;;5098131;28;20041;-76
2021/11/13 11:22:24;;;;;;;33.13;24.27;;;10.90;99.90;;;;;;5063058;28;20043;-76
2021/11/13 11:24:55;;;;;;;30.75;25.02;;;10.90;99.90;;;;;;5063848;28;20049;-76
2021/11/13 11:27:23;;;;;;;40.97;25.65;;;10.90;99.90;;;;;;5063003;28;20060;-76
2021/11/13 11:30:03;;;;;;;32.70;24.85;;;10.90;99.90;;;;;;5064061;28;20390;-76
2021/11/13 11:32:48;;;;;;;33.33;24.23;;;11.00;99.90;;;;;;5064484;28;20040;-76
2021/11/13 11:35:24;;;;;;;33.25;24.40;;;11.00;99.90;;;;;;5062584;28;20097;-76
2021/11/13 11:38:06;;;;;;;29.92;24.20;;;11.00;99.90;;;;;;5062190;28;20052;-76
2021/11/13 11:40:36;;;;;;;32.35;24.67;;;11.00;99.90;;;;;;5062081;28;20045;-76
2021/11/13 11:43:03;;;;;;;28.25;23.13;;;11.00;99.90;;;;;;5065896;28;20037;-76
2021/11/13 11:45:33;;;;;;;32.65;23.33;;;11.00;99.90;;;;;;5062769;28;21156;-76
2021/11/13 11:48:00;;;;;;;38.25;25.08;;;11.00;99.90;;;;;;5094775;28;20483;-76
2021/11/13 11:50:31;;;;;;;35.17;25.88;;;11.00;99.90;;;;;;5064288;28;20075;-77
2021/11/13 11:52:59;;;;;;;37.55;27.15;;;11.00;99.90;;;;;;5062839;28;20511;-76
2021/11/13 11:55:26;;;;;;;31.63;24.02;;;11.00;99.90;;;;;;5058226;28;20517;-76
2021/11/13 11:57:59;;;;;;;41.42;27.70;;;11.00;99.90;;;;;;5059201;28;20048;-76
2021/11/13 12:00:27;;;;;;;33.33;25.40;;;11.10;99.90;;;;;;5062776;28;20059;-77
2021/11/13 12:02:59;;;;;;;37.63;26.88;;;11.00;99.90;;;;;;5062793;28;20540;-77
2021/11/13 12:05:32;;;;;;;39.20;31.15;;;11.00;99.90;;;;;;5063949;28;20086;-77
2021/11/13 12:08:13;;;;;;;43.83;30.83;;;11.00;99.90;;;;;;5062601;28;20045;-77
2021/11/13 12:10:39;;;;;;;42.40;29.30;;;11.00;99.90;;;;;;5093751;28;20040;-77
2021/11/13 12:13:07;;;;;;;35.45;27.08;;;11.00;99.90;;;;;;5061012;28;20037;-76
2021/11/13 12:15:47;;;;;;;40.45;27.65;;;11.00;99.90;;;;;;5060344;28;20118;-77
2021/11/13 12:18:19;;;;;;;44.60;27.77;;;11.10;99.90;;;;;;5089833;28;20076;-76
2021/11/13 12:20:47;;;;;;;36.33;22.90;;;11.10;99.90;;;;;;5061795;28;20119;-76
2021/11/13 12:23:16;;;;;;;31.73;22.67;;;11.10;99.90;;;;;;5064721;28;20044;-76
2021/11/13 12:26:00;;;;;;;30.80;23.23;;;11.20;99.90;;;;;;5063641;28;20140;-76
2021/11/13 12:28:28;;;;;;;30.73;21.60;;;11.20;99.90;;;;;;5093912;28;20044;-76
2021/11/13 12:31:06;;;;;;;28.55;22.70;;;11.20;99.90;;;;;;5061074;28;20133;-76
2021/11/13 12:33:32;;;;;;;28.63;21.70;;;11.20;99.90;;;;;;5074215;28;20037;-76